Time;durP1;ratioP1;P1;durP2;ratioP2;P2;SDS_P1;SDS_P2;PMS_P1;PMS_P2;Temp;Humidity;BMP_temperature;BMP_pressure;BME280_temperature;BME280_humidity;BME280_pressure;Samples;Min_cycle;Max_cycle;Signal;HPM_P1;HPM_P2
2021/04/26 00:01:22;;;;;;;3.10;1.70;;;;;;;;;;5117345;27;20267;-77
2021/04/26 00:03:48;;;;;;;3.13;1.70;;;;;;;;;;5120307;27;20665;-79
2021/04/26 00:06:14;;;;;;;4.80;1.70;;;;;;;;;;5116697;28;20189;-74
2021/04/26 00:08:39;;;;;;;2.70;1.60;;;;;;;;;;5113360;28;20415;-76
2021/04/26 00:11:06;;;;;;;2.20;1.60;;;;;;;;;;5133220;27;20417;-76
2021/04/26 00:13:32;;;;;;;2.90;1.50;;;;;;;;;;5126851;28;20415;-80
2021/04/26 00:15:58;;;;;;;3.00;1.70;;;;;;;;;;5120716;28;20186;-77
2021/04/26 00:18:23;;;;;;;3.17;1.70;;;;;;;;;;5111703;28;20278;-81
2021/04/26 00:20:49;;;;;;;3.20;1.60;;;;;;;;;;5121439;28;20204;-78
2021/04/26 00:23:16;;;;;;;2.45;1.60;;;;;;;;;;5115311;28;20413;-73
2021/04/26 00:25:41;;;;;;;4.40;1.50;;;;;;;;;;5113707;28;20178;-74
2021/04/26 00:28:08;;;;;;;4.22;1.92;;;;;;;;;;5115059;28;20253;-75
2021/04/26 00:30:34;;;;;;;2.90;1.30;;;;;;;;;;5113519;28;20206;-79
2021/04/26 00:33:00;;;;;;;2.08;1.17;;;;;;;;;;5125334;28;20185;-80
2021/04/26 00:35:27;;;;;;;2.42;1.40;;;;;;;;;;5116942;28;20166;-79
2021/04/26 00:37:53;;;;;;;4.93;1.48;;;;;;;;;;5117412;27;20226;-75
2021/04/26 00:40:20;;;;;;;3.05;1.67;;;;;;;;;;5119438;27;20170;-79
2021/04/26 00:42:46;;;;;;;9.77;1.60;;;;;;;;;;5130281;27;20204;-75
2021/04/26 00:45:14;;;;;;;3.65;1.42;;;;;;;;;;5130948;27;20172;-77
2021/04/26 00:47:41;;;;;;;2.50;1.33;;;;;;;;;;5136478;27;20201;-77
2021/04/26 00:50:09;;;;;;;2.40;1.30;;;;;;;;;;5127147;27;20171;-76
2021/04/26 00:52:35;;;;;;;2.30;1.48;;;;;;;;;;5117347;27;20206;-75
2021/04/26 00:55:01;;;;;;;3.55;1.33;;;;;;;;;;5117059;28;20189;-75
2021/04/26 00:57:27;;;;;;;2.10;1.00;;;;;;;;;;5117484;27;20282;-76
2021/04/26 00:59:53;;;;;;;2.85;1.20;;;;;;;;;;5123765;27;20177;-80
2021/04/26 01:02:19;;;;;;;2.33;1.47;;;;;;;;;;5119550;27;20201;-77
2021/04/26 01:04:45;;;;;;;2.13;1.38;;;;;;;;;;5137716;27;20956;-78
2021/04/26 01:07:11;;;;;;;2.55;1.48;;;;;;;;;;5120609;27;20211;-80
2021/04/26 01:09:37;;;;;;;2.53;1.50;;;;;;;;;;5115415;28;20167;-77
2021/04/26 01:12:22;;;;;;;2.20;1.30;;;;;;;;;;5115907;28;20204;-74
2021/04/26 01:14:54;;;;;;;2.20;1.30;;;;;;;;;;5134417;27;20397;-78
2021/04/26 01:17:25;;;;;;;2.53;1.48;;;;;;;;;;5137674;27;20201;-74
2021/04/26 01:19:57;;;;;;;3.13;1.45;;;;;;;;;;5126238;27;20208;-77
2021/04/26 01:22:32;;;;;;;2.40;1.30;;;;;;;;;;5125042;27;20206;-78
2021/04/26 01:25:07;;;;;;;2.35;1.48;;;;;;;;;;5116811;28;20756;-79
2021/04/26 01:27:39;;;;;;;2.90;1.40;;;;;;;;;;5119211;27;20194;-78
2021/04/26 01:30:05;;;;;;;2.42;1.40;;;;;;;;;;5118584;27;20251;-79
2021/04/26 01:32:35;;;;;;;2.80;1.38;;;;;;;;;;5126444;27;20171;-77
2021/04/26 01:35:02;;;;;;;3.25;1.20;;;;;;;;;;5116173;28;20567;-78
2021/04/26 01:37:31;;;;;;;5.72;1.20;;;;;;;;;;5116637;27;20206;-78
2021/04/26 01:39:58;;;;;;;2.70;1.17;;;;;;;;;;5116521;28;20171;-78
2021/04/26 01:42:24;;;;;;;3.22;1.20;;;;;;;;;;5125191;27;20535;-75
2021/04/26 01:44:50;;;;;;;2.65;1.30;;;;;;;;;;5136619;27;20178;-78
2021/04/26 01:47:16;;;;;;;3.70;1.50;;;;;;;;;;5126739;27;20259;-79
2021/04/26 01:49:42;;;;;;;2.90;1.30;;;;;;;;;;5121349;27;20175;-75
2021/04/26 01:52:10;;;;;;;3.58;1.33;;;;;;;;;;5116128;28;20197;-79
2021/04/26 01:54:36;;;;;;;2.97;1.10;;;;;;;;;;5133019;27;20699;-78
2021/04/26 01:57:02;;;;;;;2.88;1.30;;;;;;;;;;5121594;27;20191;-77
2021/04/26 01:59:29;;;;;;;2.10;1.20;;;;;;;;;;5114088;28;20210;-79
2021/04/26 02:01:58;;;;;;;2.20;1.25;;;;;;;;;;5115754;27;20218;-77
2021/04/26 02:04:28;;;;;;;1.92;1.13;;;;;;;;;;5121738;27;20182;-77
2021/04/26 02:06:55;;;;;;;2.20;1.20;;;;;;;;;;5121273;27;20211;-80
2021/04/26 02:09:21;;;;;;;2.15;1.20;;;;;;;;;;5124485;27;20184;-80
2021/04/26 02:11:47;;;;;;;2.70;1.40;;;;;;;;;;5136355;27;20561;-78
2021/04/26 02:14:15;;;;;;;3.08;1.30;;;;;;;;;;5126927;27;20179;-79
2021/04/26 02:16:41;;;;;;;2.70;1.50;;;;;;;;;;5118750;27;20569;-79
2021/04/26 02:19:07;;;;;;;2.00;1.10;;;;;;;;;;5124819;27;20723;-78
2021/04/26 02:21:33;;;;;;;4.20;1.40;;;;;;;;;;5119480;27;20596;-79
2021/04/26 02:23:59;;;;;;;3.00;1.40;;;;;;;;;;5121813;27;20209;-77
2021/04/26 02:26:25;;;;;;;3.20;1.63;;;;;;;;;;5113850;28;20178;-79
2021/04/26 02:28:51;;;;;;;2.30;1.40;;;;;;;;;;5115111;28;20273;-76
2021/04/26 02:31:20;;;;;;;2.85;1.25;;;;;;;;;;5122215;27;20419;-76
2021/04/26 02:33:52;;;;;;;4.15;1.70;;;;;;;;;;5114073;28;20182;-77
2021/04/26 02:36:22;;;;;;;2.65;1.35;;;;;;;;;;5116609;27;20183;-77
2021/04/26 02:38:48;;;;;;;2.10;0.90;;;;;;;;;;5117021;27;20244;-79
2021/04/26 02:41:15;;;;;;;3.20;1.30;;;;;;;;;;5113780;28;20202;-79
2021/04/26 02:43:43;;;;;;;3.85;1.10;;;;;;;;;;5127850;27;20178;-79
2021/04/26 02:46:09;;;;;;;2.92;1.27;;;;;;;;;;5121757;27;20197;-78
2021/04/26 02:48:40;;;;;;;2.30;1.20;;;;;;;;;;5113177;28;20207;-79
2021/04/26 02:51:06;;;;;;;2.20;1.25;;;;;;;;;;5121719;27;20177;-79
2021/04/26 02:53:33;;;;;;;5.60;1.65;;;;;;;;;;5123545;27;20537;-78
2021/04/26 02:56:00;;;;;;;2.50;1.65;;;;;;;;;;5108423;27;20169;-77
2021/04/26 02:58:27;;;;;;;2.20;1.50;;;;;;;;;;5119619;27;20285;-79
2021/04/26 03:00:53;;;;;;;2.70;2.10;;;;;;;;;;5114461;28;20190;-79
2021/04/26 03:03:20;;;;;;;3.50;2.65;;;;;;;;;;5114467;27;20236;-78
2021/04/26 03:05:47;;;;;;;3.80;3.00;;;;;;;;;;5114869;28;20179;-82
2021/04/26 03:08:13;;;;;;;3.92;2.60;;;;;;;;;;5114032;28;20590;-76
2021/04/26 03:10:39;;;;;;;3.50;2.63;;;;;;;;;;5114361;27;20174;-80
2021/04/26 03:13:05;;;;;;;5.88;2.88;;;;;;;;;;5128439;27;20167;-79
2021/04/26 03:15:32;;;;;;;3.30;2.58;;;;;;;;;;5122019;27;20186;-76
2021/04/26 03:18:00;;;;;;;3.35;2.50;;;;;;;;;;5118276;27;20228;-79
2021/04/26 03:20:26;;;;;;;3.30;2.22;;;;;;;;;;5132556;27;20180;-78
2021/04/26 03:22:53;;;;;;;2.30;1.80;;;;;;;;;;5113730;28;20198;-77
2021/04/26 03:25:20;;;;;;;3.28;1.90;;;;;;;;;;5112752;28;20646;-76
2021/04/26 03:27:47;;;;;;;3.75;2.10;;;;;;;;;;5123725;27;20201;-77
2021/04/26 03:30:15;;;;;;;2.72;1.80;;;;;;;;;;5114303;28;20251;-77
2021/04/26 03:32:43;;;;;;;4.28;2.00;;;;;;;;;;5118982;27;20197;-74
2021/04/26 03:35:09;;;;;;;4.25;1.90;;;;;;;;;;5125620;27;20536;-77
2021/04/26 03:37:36;;;;;;;4.55;1.92;;;;;;;;;;5112970;28;20198;-77
2021/04/26 03:40:02;;;;;;;4.38;2.05;;;;;;;;;;5114169;28;20190;-77
2021/04/26 03:42:28;;;;;;;3.47;1.90;;;;;;;;;;5127254;27;20559;-77
2021/04/26 03:44:54;;;;;;;2.35;1.58;;;;;;;;;;5113164;28;20258;-75
2021/04/26 03:47:20;;;;;;;4.37;2.20;;;;;;;;;;5119200;27;20273;-76
2021/04/26 03:49:46;;;;;;;2.20;1.70;;;;;;;;;;5132204;27;20389;-79
2021/04/26 03:52:12;;;;;;;3.83;1.80;;;;;;;;;;5133189;27;20464;-78
2021/04/26 03:54:38;;;;;;;2.87;2.10;;;;;;;;;;5115863;27;20277;-77
2021/04/26 03:57:04;;;;;;;3.75;2.60;;;;;;;;;;5131443;27;20943;-76
2021/04/26 03:59:30;;;;;;;4.25;2.40;;;;;;;;;;5112271;28;20190;-80
2021/04/26 04:01:56;;;;;;;7.30;2.30;;;;;;;;;;5118917;27;20201;-80
2021/04/26 04:04:23;;;;;;;3.58;2.45;;;;;;;;;;5134360;27;20907;-77
2021/04/26 04:06:49;;;;;;;5.72;2.60;;;;;;;;;;5120446;27;20241;-79
2021/04/26 04:09:16;;;;;;;4.87;2.43;;;;;;;;;;5111740;28;20174;-75
2021/04/26 04:11:42;;;;;;;3.40;2.20;;;;;;;;;;5133044;27;20423;-78
2021/04/26 04:14:08;;;;;;;3.43;2.13;;;;;;;;;;5133969;28;20184;-78
2021/04/26 04:16:37;;;;;;;3.20;2.10;;;;;;;;;;5127102;28;20476;-75
2021/04/26 04:19:03;;;;;;;3.63;2.10;;;;;;;;;;5120188;28;20184;-76
2021/04/26 04:21:29;;;;;;;6.18;3.33;;;;;;;;;;5122871;28;20259;-74
2021/04/26 04:23:55;;;;;;;3.72;2.90;;;;;;;;;;5126404;28;20185;-78
2021/04/26 04:26:21;;;;;;;3.80;2.75;;;;;;;;;;5121464;28;20170;-77
2021/04/26 04:28:47;;;;;;;3.47;2.80;;;;;;;;;;5113038;28;20202;-77
2021/04/26 04:31:14;;;;;;;6.88;4.28;;;;;;;;;;5116099;28;20178;-76
2021/04/26 04:33:40;;;;;;;8.77;3.70;;;;;;;;;;5125943;28;20199;-78
2021/04/26 04:36:06;;;;;;;5.67;3.83;;;;;;;;;;5113673;28;20170;-78
2021/04/26 04:38:32;;;;;;;4.50;3.90;;;;;;;;;;5117248;28;20418;-77
2021/04/26 04:40:58;;;;;;;5.10;3.53;;;;;;;;;;5118666;28;20200;-76
2021/04/26 04:43:24;;;;;;;5.95;4.15;;;;;;;;;;5132213;28;20231;-79
2021/04/26 04:45:50;;;;;;;4.75;3.38;;;;;;;;;;5126544;28;20175;-79
2021/04/26 04:48:16;;;;;;;6.18;3.70;;;;;;;;;;5113164;28;20244;-76
2021/04/26 04:50:43;;;;;;;4.50;3.15;;;;;;;;;;5132357;28;20205;-80
2021/04/26 04:53:09;;;;;;;5.13;2.92;;;;;;;;;;5132164;28;20174;-81
2021/04/26 04:55:35;;;;;;;6.07;3.00;;;;;;;;;;5113539;28;20265;-78
2021/04/26 04:58:01;;;;;;;6.70;3.13;;;;;;;;;;5125237;28;20709;-77
2021/04/26 05:00:27;;;;;;;4.77;2.53;;;;;;;;;;5126853;28;20416;-78
2021/04/26 05:02:53;;;;;;;7.28;3.13;;;;;;;;;;5126625;28;20445;-76
2021/04/26 05:05:19;;;;;;;8.83;3.10;;;;;;;;;;5131445;28;20185;-77
2021/04/26 05:07:45;;;;;;;5.75;2.80;;;;;;;;;;5113813;28;20822;-79
2021/04/26 05:10:12;;;;;;;3.85;2.50;;;;;;;;;;5133653;28;20181;-75
2021/04/26 05:12:38;;;;;;;3.75;2.47;;;;;;;;;;5119909;28;20178;-77
2021/04/26 05:15:04;;;;;;;2.80;2.53;;;;;;;;;;5133214;28;20265;-76
2021/04/26 05:17:31;;;;;;;6.70;2.40;;;;;;;;;;5114094;28;20709;-77
2021/04/26 05:19:58;;;;;;;3.60;2.53;;;;;;;;;;5116138;28;20256;-78
2021/04/26 05:22:25;;;;;;;3.17;2.50;;;;;;;;;;5114689;28;20215;-79
2021/04/26 05:24:51;;;;;;;3.45;3.00;;;;;;;;;;5116111;28;20171;-77
2021/04/26 05:27:17;;;;;;;4.97;2.70;;;;;;;;;;5119119;27;20275;-74
2021/04/26 05:29:42;;;;;;;3.67;2.67;;;;;;;;;;5123883;27;20173;-79
2021/04/26 05:32:08;;;;;;;4.27;2.57;;;;;;;;;;5117519;27;20735;-77
2021/04/26 05:34:34;;;;;;;4.80;2.60;;;;;;;;;;5123801;27;20804;-76
2021/04/26 05:37:00;;;;;;;5.13;3.20;;;;;;;;;;5119179;27;20935;-75
2021/04/26 05:39:27;;;;;;;3.77;2.70;;;;;;;;;;5116048;28;20223;-77
2021/04/26 05:41:53;;;;;;;8.27;3.13;;;;;;;;;;5130509;27;20429;-78
2021/04/26 05:44:19;;;;;;;3.37;2.47;;;;;;;;;;5136704;27;20185;-81
2021/04/26 05:46:45;;;;;;;3.70;2.40;;;;;;;;;;5120208;27;20416;-78
2021/04/26 05:49:11;;;;;;;4.45;2.20;;;;;;;;;;5136456;27;20239;-77
2021/04/26 05:51:37;;;;;;;3.15;2.33;;;;;;;;;;5122182;27;20194;-77
2021/04/26 05:54:03;;;;;;;5.93;2.22;;;;;;;;;;5118164;27;20175;-76
2021/04/26 05:56:29;;;;;;;2.70;2.17;;;;;;;;;;5116309;28;20174;-79
2021/04/26 05:58:55;;;;;;;3.22;2.10;;;;;;;;;;5122736;27;20178;-81
2021/04/26 06:01:21;;;;;;;6.10;2.60;;;;;;;;;;5136832;27;20193;-77
2021/04/26 06:03:47;;;;;;;3.03;1.97;;;;;;;;;;5129606;27;20440;-80
2021/04/26 06:06:13;;;;;;;6.82;2.40;;;;;;;;;;5115936;28;20425;-79
2021/04/26 06:08:39;;;;;;;4.45;2.30;;;;;;;;;;5122945;27;20194;-76
2021/04/26 06:11:05;;;;;;;5.03;2.30;;;;;;;;;;5123341;27;20220;-80
2021/04/26 06:13:31;;;;;;;6.00;2.25;;;;;;;;;;5122193;27;20415;-80
2021/04/26 06:15:57;;;;;;;6.20;3.97;;;;;;;;;;5128648;27;20190;-81
2021/04/26 06:18:24;;;;;;;4.15;3.55;;;;;;;;;;5109314;28;20422;-74
2021/04/26 06:20:51;;;;;;;7.05;3.30;;;;;;;;;;5113291;27;20174;-73
2021/04/26 06:23:17;;;;;;;3.50;2.80;;;;;;;;;;5103269;27;20266;-75
2021/04/26 06:25:44;;;;;;;4.75;2.30;;;;;;;;;;5117064;27;20894;-74
2021/04/26 06:28:13;;;;;;;4.72;3.78;;;;;;;;;;5101008;28;20562;-73
2021/04/26 06:30:40;;;;;;;4.30;2.90;;;;;;;;;;5125272;27;20508;-74
2021/04/26 06:33:08;;;;;;;4.35;2.92;;;;;;;;;;5119713;27;20209;-74
2021/04/26 06:35:34;;;;;;;6.15;2.42;;;;;;;;;;5119982;27;20289;-74
2021/04/26 06:38:00;;;;;;;6.03;3.03;;;;;;;;;;5116994;27;20305;-74
2021/04/26 06:40:26;;;;;;;4.55;2.60;;;;;;;;;;5131620;27;20390;-75
2021/04/26 06:42:53;;;;;;;3.08;2.05;;;;;;;;;;5113475;27;20293;-77
2021/04/26 06:45:23;;;;;;;2.60;2.38;;;;;;;;;;5126217;27;20210;-74
2021/04/26 06:47:49;;;;;;;3.63;2.75;;;;;;;;;;5123452;27;20277;-74
2021/04/26 06:50:15;;;;;;;2.80;2.22;;;;;;;;;;5113949;27;20229;-75
2021/04/26 06:52:42;;;;;;;3.83;2.53;;;;;;;;;;5113177;27;20178;-74
2021/04/26 06:55:08;;;;;;;4.97;3.10;;;;;;;;;;5114795;27;20178;-75
2021/04/26 06:57:34;;;;;;;8.52;3.47;;;;;;;;;;5119584;27;20209;-74
2021/04/26 07:00:00;;;;;;;2.87;2.17;;;;;;;;;;5119216;27;20593;-74
2021/04/26 07:02:26;;;;;;;3.40;2.70;;;;;;;;;;5120134;27;20482;-74
2021/04/26 07:04:52;;;;;;;4.47;2.50;;;;;;;;;;5130672;27;20386;-75
2021/04/26 07:07:17;;;;;;;2.70;1.80;;;;;;;;;;5122386;27;20419;-74
2021/04/26 07:09:45;;;;;;;3.30;2.03;;;;;;;;;;5127215;27;20435;-73
2021/04/26 07:12:11;;;;;;;2.83;1.92;;;;;;;;;;5122584;27;20486;-74
2021/04/26 07:14:37;;;;;;;4.80;2.85;;;;;;;;;;5113691;27;20655;-74
2021/04/26 07:17:03;;;;;;;7.97;5.00;;;;;;;;;;5124991;27;20243;-74
2021/04/26 07:19:29;;;;;;;6.78;1.90;;;;;;;;;;5114520;27;20423;-74
2021/04/26 07:21:55;;;;;;;2.73;1.63;;;;;;;;;;5114889;27;20231;-74
2021/04/26 07:24:21;;;;;;;3.10;2.10;;;;;;;;;;5121601;27;20390;-74
2021/04/26 07:26:47;;;;;;;2.43;2.10;;;;;;;;;;5116494;27;20749;-74
2021/04/26 07:29:13;;;;;;;3.05;1.90;;;;;;;;;;5110067;28;20383;-74
2021/04/26 07:31:39;;;;;;;7.10;1.90;;;;;;;;;;5116496;27;20189;-74
2021/04/26 07:34:05;;;;;;;2.50;1.70;;;;;;;;;;5121448;27;20415;-74
2021/04/26 07:36:31;;;;;;;5.90;1.90;;;;;;;;;;5120123;27;20467;-75
2021/04/26 07:38:57;;;;;;;3.67;1.98;;;;;;;;;;5111652;27;20929;-75
2021/04/26 07:41:24;;;;;;;2.63;1.60;;;;;;;;;;5121732;27;20202;-75
2021/04/26 07:43:50;;;;;;;4.60;1.50;;;;;;;;;;5109317;28;20973;-73
2021/04/26 07:46:16;;;;;;;2.35;1.33;;;;;;;;;;5111419;27;20265;-73
2021/04/26 07:48:42;;;;;;;3.78;1.23;;;;;;;;;;5112533;27;20330;-74
2021/04/26 07:51:08;;;;;;;2.28;1.30;;;;;;;;;;5125299;27;20562;-73
2021/04/26 07:53:34;;;;;;;3.53;2.20;;;;;;;;;;5112679;27;20295;-74
2021/04/26 07:56:01;;;;;;;1.85;1.00;;;;;;;;;;5110742;27;20208;-73
2021/04/26 07:58:27;;;;;;;2.10;1.40;;;;;;;;;;5126367;27;20205;-73
2021/04/26 08:00:52;;;;;;;3.20;1.37;;;;;;;;;;5121990;27;20184;-75
2021/04/26 08:03:19;;;;;;;2.85;1.60;;;;;;;;;;5118223;27;20784;-73
2021/04/26 08:05:45;;;;;;;2.20;1.60;;;;;;;;;;5114532;27;20190;-74
2021/04/26 08:08:11;;;;;;;3.43;1.70;;;;;;;;;;5129900;27;20198;-73
2021/04/26 08:10:37;;;;;;;3.63;1.63;;;;;;;;;;5115586;27;20509;-74
2021/04/26 08:13:04;;;;;;;2.17;1.70;;;;;;;;;;5112656;28;20400;-74
2021/04/26 08:15:30;;;;;;;2.40;1.30;;;;;;;;;;5114043;27;20253;-74
2021/04/26 08:17:56;;;;;;;4.93;1.40;;;;;;;;;;5112899;28;20559;-73
2021/04/26 08:20:22;;;;;;;3.60;1.60;;;;;;;;;;5124785;28;20650;-73
2021/04/26 08:22:48;;;;;;;2.77;1.73;;;;;;;;;;5128342;28;20242;-73
2021/04/26 08:25:14;;;;;;;6.13;1.80;;;;;;;;;;5129911;28;20415;-73
2021/04/26 08:27:40;;;;;;;4.80;1.40;;;;;;;;;;5123185;28;20195;-73
2021/04/26 08:30:08;;;;;;;4.40;1.60;;;;;;;;;;5111800;28;20196;-73
2021/04/26 08:32:34;;;;;;;2.40;1.30;;;;;;;;;;5124850;28;20404;-73
2021/04/26 08:35:00;;;;;;;5.40;1.40;;;;;;;;;;5124434;28;20877;-73
2021/04/26 08:37:26;;;;;;;2.15;1.60;;;;;;;;;;5118167;28;20204;-73
2021/04/26 08:39:52;;;;;;;2.30;1.58;;;;;;;;;;5125978;28;20188;-73
2021/04/26 08:42:19;;;;;;;5.17;3.27;;;;;;;;;;5129899;28;20202;-73
2021/04/26 08:44:45;;;;;;;3.28;1.70;;;;;;;;;;5114062;28;20427;-73
2021/04/26 08:47:12;;;;;;;2.70;1.45;;;;;;;;;;5126595;28;20225;-73
2021/04/26 08:49:38;;;;;;;2.30;1.50;;;;;;;;;;5114003;28;20692;-74
2021/04/26 08:52:04;;;;;;;2.70;1.70;;;;;;;;;;5122732;28;20193;-73
2021/04/26 08:54:32;;;;;;;2.85;1.80;;;;;;;;;;5129544;27;20233;-74
2021/04/26 08:56:57;;;;;;;2.47;1.58;;;;;;;;;;5125326;27;20324;-74
2021/04/26 08:59:23;;;;;;;2.73;1.60;;;;;;;;;;5116342;27;20257;-73
2021/04/26 09:01:58;;;;;;;2.63;1.80;;;;;;;;;;5115100;27;20448;-72
2021/04/26 09:04:24;;;;;;;2.92;2.05;;;;;;;;;;5125456;27;20411;-72
2021/04/26 09:06:51;;;;;;;4.03;1.70;;;;;;;;;;5130083;27;20216;-72
2021/04/26 09:09:37;;;;;;;2.53;1.90;;;;;;;;;;5133408;27;20416;-73
2021/04/26 09:12:03;;;;;;;3.42;1.70;;;;;;;;;;5132032;27;20185;-73
2021/04/26 09:14:39;;;;;;;2.30;1.60;;;;;;;;;;5112568;27;20675;-72
2021/04/26 09:17:44;;;;;;;2.72;1.80;;;;;;;;;;5122859;27;20213;-73
2021/04/26 09:20:16;;;;;;;3.83;1.60;;;;;;;;;;5057337;28;20233;-73
2021/04/26 09:22:44;;;;;;;4.43;3.15;;;;;;;;;;5068936;28;20227;-74
2021/04/26 09:25:20;;;;;;;8.85;4.30;;;;;;;;;;5100557;27;20284;-73
2021/04/26 09:27:53;;;;;;;3.88;3.03;;;;;;;;;;5125848;27;20205;-72
2021/04/26 09:30:39;;;;;;;3.25;2.10;;;;;;;;;;5112102;28;20186;-72
2021/04/26 09:33:14;;;;;;;3.85;2.20;;;;;;;;;;5120472;27;20545;-74
2021/04/26 09:35:40;;;;;;;3.95;2.78;;;;;;;;;;5127042;27;20184;-74
2021/04/26 09:38:26;;;;;;;2.30;1.95;;;;;;;;;;5112183;28;20683;-73
2021/04/26 09:41:10;;;;;;;2.85;2.30;;;;;;;;;;5130401;27;20196;-74
2021/04/26 09:43:37;;;;;;;2.50;2.05;;;;;;;;;;5128248;27;20266;-73
2021/04/26 09:46:03;;;;;;;3.05;1.95;;;;;;;;;;5118347;27;20551;-74
2021/04/26 09:48:30;;;;;;;3.30;2.00;;;;;;;;;;5115748;27;20750;-73
2021/04/26 09:50:57;;;;;;;3.27;2.23;;;;;;;;;;5111989;28;20426;-74
2021/04/26 09:53:24;;;;;;;4.37;2.20;;;;;;;;;;5129222;27;20528;-74
2021/04/26 09:55:51;;;;;;;3.23;2.00;;;;;;;;;;5111984;27;20769;-72
2021/04/26 09:58:17;;;;;;;3.13;2.00;;;;;;;;;;5132234;27;20428;-74
2021/04/26 10:00:45;;;;;;;3.07;2.07;;;;;;;;;;5103279;27;20433;-74
2021/04/26 10:03:12;;;;;;;2.60;1.77;;;;;;;;;;5132149;27;20498;-74
2021/04/26 10:05:38;;;;;;;3.37;1.87;;;;;;;;;;5113121;27;20766;-73
2021/04/26 10:08:04;;;;;;;3.20;1.70;;;;;;;;;;5130709;27;20946;-73
2021/04/26 10:10:30;;;;;;;3.50;2.07;;;;;;;;;;5111696;27;20511;-73
2021/04/26 10:12:56;;;;;;;3.87;1.80;;;;;;;;;;5130126;27;20426;-74
2021/04/26 10:15:26;;;;;;;3.87;2.30;;;;;;;;;;5129630;27;20427;-73
2021/04/26 10:17:53;;;;;;;3.03;2.03;;;;;;;;;;5131993;27;20467;-74
2021/04/26 10:20:55;;;;;;;2.50;2.00;;;;;;;;;;5116912;27;20477;-74
2021/04/26 10:23:35;;;;;;;2.83;2.13;;;;;;;;;;5121680;27;20476;-74
2021/04/26 10:26:01;;;;;;;3.23;2.30;;;;;;;;;;5119723;27;20484;-74
2021/04/26 10:28:29;;;;;;;2.87;2.57;;;;;;;;;;5118695;27;21002;-74
2021/04/26 10:31:10;;;;;;;2.40;1.87;;;;;;;;;;5111307;27;20433;-74
2021/04/26 10:34:09;;;;;;;2.70;2.40;;;;;;;;;;5125326;27;20430;-74
2021/04/26 10:36:41;;;;;;;2.90;2.20;;;;;;;;;;5093458;28;20435;-74
2021/04/26 10:39:07;;;;;;;3.40;2.20;;;;;;;;;;5120883;27;20923;-74
2021/04/26 10:41:55;;;;;;;2.83;2.63;;;;;;;;;;5127805;27;20515;-73
2021/04/26 10:44:39;;;;;;;3.70;2.50;;;;;;;;;;5116018;27;20924;-74
2021/04/26 10:47:17;;;;;;;2.70;2.37;;;;;;;;;;5108566;27;20996;-74
2021/04/26 10:49:44;;;;;;;3.67;2.40;;;;;;;;;;5121947;27;20416;-75
2021/04/26 10:52:28;;;;;;;4.70;2.67;;;;;;;;;;5110411;28;20758;-74
2021/04/26 10:54:58;;;;;;;4.13;2.43;;;;;;;;;;5120027;27;20902;-75
2021/04/26 10:57:40;;;;;;;3.33;2.30;;;;;;;;;;5124679;27;20524;-74
2021/04/26 11:00:26;;;;;;;5.73;2.60;;;;;;;;;;5105935;27;20431;-75
2021/04/26 11:03:18;;;;;;;3.27;2.57;;;;;;;;;;5129072;27;20564;-74
2021/04/26 11:05:45;;;;;;;3.87;2.40;;;;;;;;;;5086274;27;20447;-73
2021/04/26 11:08:31;;;;;;;4.43;2.40;;;;;;;;;;5120018;27;20501;-75
2021/04/26 11:11:02;;;;;;;3.70;2.10;;;;;;;;;;5129507;27;20950;-73
2021/04/26 11:13:31;;;;;;;2.33;2.13;;;;;;;;;;5118379;27;20435;-72
2021/04/26 11:16:04;;;;;;;2.90;2.50;;;;;;;;;;5120166;27;20553;-74
2021/04/26 11:18:31;;;;;;;2.70;2.50;;;;;;;;;;5117633;27;20940;-73
2021/04/26 11:20:57;;;;;;;2.87;2.57;;;;;;;;;;5118154;27;20408;-73
2021/04/26 11:23:41;;;;;;;6.47;2.80;;;;;;;;;;5119979;27;20930;-73
2021/04/26 11:26:16;;;;;;;6.03;2.73;;;;;;;;;;5120643;27;20426;-74
2021/04/26 11:29:01;;;;;;;2.70;2.13;;;;;;;;;;5115647;27;20424;-75
2021/04/26 11:31:52;;;;;;;2.40;1.97;;;;;;;;;;5110233;28;20989;-74
2021/04/26 11:34:20;;;;;;;4.83;2.10;;;;;;;;;;5117451;27;20424;-74
2021/04/26 11:37:01;;;;;;;3.23;2.53;;;;;;;;;;5114016;27;20427;-75
2021/04/26 11:39:28;;;;;;;2.60;2.10;;;;;;;;;;5118871;27;20917;-74
2021/04/26 11:41:54;;;;;;;5.40;2.10;;;;;;;;;;5116083;27;20459;-74
2021/04/26 11:44:26;;;;;;;2.40;2.00;;;;;;;;;;5113844;27;20916;-73
2021/04/26 11:46:53;;;;;;;3.47;2.20;;;;;;;;;;5117125;27;20428;-73
2021/04/26 11:49:21;;;;;;;3.90;1.83;;;;;;;;;;5128921;27;20983;-74
2021/04/26 11:51:49;;;;;;;3.50;1.90;;;;;;;;;;5112803;27;20778;-75
2021/04/26 11:54:16;;;;;;;2.30;1.90;;;;;;;;;;5121179;27;20419;-74
2021/04/26 11:56:58;;;;;;;2.40;2.20;;;;;;;;;;5122739;27;20411;-73
2021/04/26 11:59:24;;;;;;;2.63;2.37;;;;;;;;;;5124090;27;20431;-75
2021/04/26 12:01:51;;;;;;;3.70;2.27;;;;;;;;;;5104944;27;20463;-75
2021/04/26 12:04:31;;;;;;;3.27;1.90;;;;;;;;;;5108501;27;20431;-75
2021/04/26 12:06:57;;;;;;;2.20;2.00;;;;;;;;;;5106613;27;20443;-75
2021/04/26 12:09:23;;;;;;;2.30;1.83;;;;;;;;;;5121881;27;20416;-75
2021/04/26 12:11:55;;;;;;;4.63;2.13;;;;;;;;;;5130333;27;20465;-77
2021/04/26 12:14:21;;;;;;;4.00;2.07;;;;;;;;;;5127024;27;20416;-76
2021/04/26 12:16:47;;;;;;;2.90;2.13;;;;;;;;;;5119196;28;20424;-75
2021/04/26 12:19:13;;;;;;;6.20;5.50;;;;;;;;;;5129805;28;20415;-75
2021/04/26 12:21:39;;;;;;;2.57;2.13;;;;;;;;;;5128693;28;20459;-75
2021/04/26 12:24:05;;;;;;;2.83;1.97;;;;;;;;;;5120963;28;20435;-76
2021/04/26 12:26:31;;;;;;;4.50;4.10;;;;;;;;;;5115998;28;20426;-76
2021/04/26 12:28:57;;;;;;;3.27;2.00;;;;;;;;;;5111755;28;20408;-76
2021/04/26 12:31:25;;;;;;;2.80;1.80;;;;;;;;;;5129720;27;20424;-76
2021/04/26 12:33:51;;;;;;;2.53;2.10;;;;;;;;;;5130432;27;20418;-75
2021/04/26 12:36:17;;;;;;;2.60;2.20;;;;;;;;;;5131437;27;20407;-75
2021/04/26 12:38:48;;;;;;;4.13;2.33;;;;;;;;;;5130110;27;20564;-76
2021/04/26 12:41:14;;;;;;;2.97;2.20;;;;;;;;;;5132765;27;20935;-75
2021/04/26 12:43:42;;;;;;;4.47;2.20;;;;;;;;;;5117219;27;20491;-76
2021/04/26 12:46:12;;;;;;;3.07;2.30;;;;;;;;;;5115692;27;20435;-75
2021/04/26 12:48:38;;;;;;;3.70;2.20;;;;;;;;;;5117663;27;20439;-76
2021/04/26 12:51:06;;;;;;;2.47;2.20;;;;;;;;;;5117094;27;20808;-75
2021/04/26 12:53:32;;;;;;;2.40;2.10;;;;;;;;;;5127967;27;20415;-76
2021/04/26 12:56:06;;;;;;;3.07;2.20;;;;;;;;;;5117124;27;20434;-75
2021/04/26 12:58:33;;;;;;;2.93;1.90;;;;;;;;;;5123061;27;20427;-73
2021/04/26 13:01:03;;;;;;;2.90;2.00;;;;;;;;;;5110998;28;20432;-73
2021/04/26 13:03:42;;;;;;;2.60;2.20;;;;;;;;;;5110301;28;20428;-73
2021/04/26 13:06:08;;;;;;;2.50;2.30;;;;;;;;;;5128596;27;20442;-73
2021/04/26 13:08:35;;;;;;;3.23;2.33;;;;;;;;;;5114807;27;20952;-73
2021/04/26 13:11:02;;;;;;;2.77;2.23;;;;;;;;;;5114318;27;20439;-72
2021/04/26 13:13:29;;;;;;;2.40;2.07;;;;;;;;;;5121847;27;20406;-73
2021/04/26 13:15:55;;;;;;;2.90;2.17;;;;;;;;;;5117054;27;20550;-73
2021/04/26 13:18:22;;;;;;;3.83;2.60;;;;;;;;;;5121559;27;20431;-74
2021/04/26 13:20:50;;;;;;;2.90;2.10;;;;;;;;;;5120781;27;20525;-74
2021/04/26 13:23:23;;;;;;;4.63;2.40;;;;;;;;;;5122025;27;20460;-73
2021/04/26 13:25:50;;;;;;;2.70;2.30;;;;;;;;;;5125343;27;20928;-73
2021/04/26 13:28:28;;;;;;;2.90;2.60;;;;;;;;;;5120251;27;20567;-74
2021/04/26 13:30:55;;;;;;;2.93;2.40;;;;;;;;;;5120386;27;20425;-73
2021/04/26 13:33:22;;;;;;;2.43;2.20;;;;;;;;;;5114197;27;20433;-74
2021/04/26 13:35:48;;;;;;;4.13;2.50;;;;;;;;;;5118627;27;20514;-74
2021/04/26 13:38:14;;;;;;;3.20;2.40;;;;;;;;;;5114568;27;20552;-74
2021/04/26 13:40:40;;;;;;;3.00;2.70;;;;;;;;;;5131953;27;20415;-74
2021/04/26 13:43:06;;;;;;;4.25;3.30;;;;;;;;;;5115479;27;20301;-74
2021/04/26 13:45:31;;;;;;;4.53;2.60;;;;;;;;;;5132667;27;20264;-74
2021/04/26 13:47:57;;;;;;;3.73;2.53;;;;;;;;;;5117578;27;20723;-75
2021/04/26 13:50:23;;;;;;;3.40;2.77;;;;;;;;;;5126184;27;20912;-74
2021/04/26 13:52:49;;;;;;;3.30;2.40;;;;;;;;;;5113685;27;20435;-74
2021/04/26 13:55:15;;;;;;;2.93;2.07;;;;;;;;;;5117811;27;20186;-74
2021/04/26 13:57:41;;;;;;;3.30;2.20;;;;;;;;;;5122779;27;20504;-74
2021/04/26 14:00:08;;;;;;;2.73;2.37;;;;;;;;;;5125915;27;20793;-75
2021/04/26 14:02:34;;;;;;;3.75;2.40;;;;;;;;;;5111481;28;20623;-73
2021/04/26 14:05:00;;;;;;;2.57;2.30;;;;;;;;;;5114728;27;20264;-73
2021/04/26 14:07:26;;;;;;;4.50;2.80;;;;;;;;;;5110546;28;20577;-74
2021/04/26 14:09:54;;;;;;;2.93;2.10;;;;;;;;;;5114792;27;20420;-73
2021/04/26 14:12:20;;;;;;;3.20;2.53;;;;;;;;;;5112594;27;20432;-74
2021/04/26 14:14:47;;;;;;;2.70;2.30;;;;;;;;;;5124342;27;20417;-74
2021/04/26 14:17:13;;;;;;;2.60;2.40;;;;;;;;;;5112029;27;20463;-74
2021/04/26 14:19:39;;;;;;;8.15;7.22;;;;;;;;;;5132075;27;20829;-73
2021/04/26 14:22:05;;;;;;;3.20;2.60;;;;;;;;;;5116774;27;20210;-72
2021/04/26 14:24:31;;;;;;;2.63;2.37;;;;;;;;;;5115132;27;20416;-72
2021/04/26 14:26:58;;;;;;;6.20;5.60;;;;;;;;;;5110767;28;20445;-74
2021/04/26 14:29:24;;;;;;;3.10;2.80;;;;;;;;;;5111494;28;20754;-73
2021/04/26 14:31:50;;;;;;;3.63;3.17;;;;;;;;;;5122601;27;20193;-73
2021/04/26 14:34:16;;;;;;;4.23;3.30;;;;;;;;;;5118958;27;20480;-73
2021/04/26 14:36:42;;;;;;;2.97;2.67;;;;;;;;;;5117323;27;20424;-73
2021/04/26 14:39:08;;;;;;;5.07;3.30;;;;;;;;;;5127984;27;20433;-73
2021/04/26 14:41:34;;;;;;;3.90;3.60;;;;;;;;;;5111187;28;20552;-73
2021/04/26 14:44:00;;;;;;;3.17;2.73;;;;;;;;;;5128627;27;20411;-73
2021/04/26 14:46:26;;;;;;;3.67;2.90;;;;;;;;;;5131568;27;20497;-73
2021/04/26 14:48:52;;;;;;;3.30;3.00;;;;;;;;;;5131219;27;20201;-73